Time;durP1;ratioP1;P1;durP2;ratioP2;P2;SDS_P1;SDS_P2;PMS_P1;PMS_P2;Temp;Humidity;BMP_temperature;BMP_pressure;BME280_temperature;BME280_humidity;BME280_pressure;Samples;Min_cycle;Max_cycle;Signal;HPM_P1;HPM_P2
2021/07/13 00:01:41;;;;;;;20.13;17.00;;;21.20;99.90;;;;;;4918482;29;20024;-75
2021/07/13 00:04:08;;;;;;;19.67;15.68;;;21.20;99.90;;;;;;4918296;29;20542;-73
2021/07/13 00:06:34;;;;;;;21.60;15.98;;;21.20;99.90;;;;;;4918163;29;20020;-73
2021/07/13 00:09:00;;;;;;;24.17;17.00;;;21.20;99.90;;;;;;4918215;29;20079;-74
2021/07/13 00:11:25;;;;;;;20.77;16.20;;;21.10;99.90;;;;;;4918222;29;20032;-73
2021/07/13 00:13:51;;;;;;;22.67;17.42;;;21.10;99.90;;;;;;4917909;29;20036;-73
2021/07/13 00:16:17;;;;;;;23.77;16.42;;;21.10;99.90;;;;;;4900975;29;20131;-73
2021/07/13 00:18:43;;;;;;;19.55;16.05;;;21.00;99.90;;;;;;4917969;29;20035;-73
2021/07/13 00:21:09;;;;;;;23.00;16.17;;;21.00;99.90;;;;;;4917758;29;20028;-74
2021/07/13 00:23:36;;;;;;;21.10;15.68;;;21.00;99.90;;;;;;4917850;29;20051;-74
2021/07/13 00:26:03;;;;;;;25.65;17.23;;;21.00;99.90;;;;;;4917771;29;20048;-74
2021/07/13 00:28:29;;;;;;;23.48;17.20;;;21.00;99.90;;;;;;4917666;29;20024;-73
2021/07/13 00:30:55;;;;;;;34.72;20.95;;;20.90;99.90;;;;;;4917595;29;20490;-73
2021/07/13 00:33:21;;;;;;;22.85;17.33;;;20.90;99.90;;;;;;4917698;29;20036;-74
2021/07/13 00:35:46;;;;;;;23.17;16.42;;;20.90;99.90;;;;;;4900533;29;20047;-74
2021/07/13 00:38:12;;;;;;;20.27;14.93;;;20.90;99.90;;;;;;4917665;29;20094;-74
2021/07/13 00:40:38;;;;;;;14.77;13.20;;;20.90;99.90;;;;;;4917463;29;20091;-73
2021/07/13 00:43:04;;;;;;;20.50;13.70;;;20.90;99.90;;;;;;4917275;29;20075;-73
2021/07/13 00:45:30;;;;;;;15.85;12.13;;;20.90;99.90;;;;;;4917420;29;20051;-73
2021/07/13 00:47:55;;;;;;;15.18;12.13;;;20.90;99.90;;;;;;4917424;29;20100;-73
2021/07/13 00:50:24;;;;;;;12.82;11.48;;;20.90;99.90;;;;;;4917150;29;20036;-73
2021/07/13 00:52:50;;;;;;;15.25;12.80;;;20.90;99.90;;;;;;4917249;29;20356;-73
2021/07/13 00:55:17;;;;;;;13.50;11.68;;;21.00;99.90;;;;;;4917211;29;20028;-73
2021/07/13 00:57:43;;;;;;;15.40;11.18;;;21.00;99.90;;;;;;4917005;29;20059;-73
2021/07/13 01:00:14;;;;;;;13.68;11.07;;;21.00;99.90;;;;;;4916987;29;20110;-73
2021/07/13 01:02:43;;;;;;;15.07;11.77;;;21.00;99.90;;;;;;4916993;29;20017;-73
2021/07/13 01:05:17;;;;;;;16.50;11.05;;;21.00;99.90;;;;;;4917107;29;20040;-73
2021/07/13 01:07:56;;;;;;;15.48;11.23;;;21.00;99.90;;;;;;4916948;29;20424;-74
2021/07/13 01:10:44;;;;;;;12.75;11.48;;;21.00;99.90;;;;;;4916551;29;20107;-73
2021/07/13 01:13:30;;;;;;;16.02;12.18;;;21.00;99.90;;;;;;4916813;29;20024;-73
2021/07/13 01:16:18;;;;;;;17.42;11.98;;;21.00;99.90;;;;;;4916803;29;20042;-73
2021/07/13 01:18:54;;;;;;;13.20;11.82;;;21.10;99.90;;;;;;4916766;29;20032;-74
2021/07/13 01:21:49;;;;;;;13.73;12.32;;;21.10;99.90;;;;;;4916749;29;20032;-74
2021/07/13 01:24:24;;;;;;;20.92;13.75;;;21.10;99.90;;;;;;4914861;29;20028;-74
2021/07/13 01:27:17;;;;;;;19.25;15.13;;;21.10;99.90;;;;;;4899898;29;20462;-73
2021/07/13 01:29:45;;;;;;;21.83;16.23;;;21.10;99.90;;;;;;4916866;29;20374;-74
2021/07/13 01:32:23;;;;;;;18.40;13.70;;;21.10;99.90;;;;;;4916754;29;20028;-74
2021/07/13 01:34:55;;;;;;;14.65;12.70;;;21.10;99.90;;;;;;4916601;29;20106;-73
2021/07/13 01:37:22;;;;;;;20.38;12.80;;;21.10;99.90;;;;;;4916632;29;20032;-73
2021/07/13 01:39:52;;;;;;;14.23;12.18;;;21.20;99.90;;;;;;4899359;29;20028;-73
2021/07/13 01:42:19;;;;;;;16.15;12.25;;;21.20;99.90;;;;;;4916431;29;20028;-73
2021/07/13 01:44:47;;;;;;;16.40;11.80;;;21.20;99.90;;;;;;4916557;29;20515;-73
2021/07/13 01:47:14;;;;;;;15.82;11.90;;;21.20;99.90;;;;;;4916417;29;20072;-73
2021/07/13 01:49:41;;;;;;;15.52;11.73;;;21.20;99.90;;;;;;4916413;29;20026;-73
2021/07/13 01:52:09;;;;;;;13.23;11.38;;;21.20;99.90;;;;;;4916184;29;20091;-73
2021/07/13 01:54:36;;;;;;;13.60;10.45;;;21.20;99.90;;;;;;4899133;29;20376;-74
2021/07/13 01:57:02;;;;;;;20.30;11.73;;;21.30;99.90;;;;;;4915877;29;20056;-73
2021/07/13 01:59:29;;;;;;;15.77;12.05;;;21.30;99.90;;;;;;4916153;29;20463;-73
2021/07/13 02:01:58;;;;;;;15.05;10.80;;;21.30;99.90;;;;;;4916122;29;20436;-73
2021/07/13 02:04:29;;;;;;;16.23;11.13;;;21.30;99.90;;;;;;4915998;29;20471;-73
2021/07/13 02:07:00;;;;;;;19.00;14.33;;;21.30;99.90;;;;;;4916081;29;20035;-74
2021/07/13 02:09:27;;;;;;;21.15;16.10;;;21.30;99.90;;;;;;4899067;29;20379;-75
2021/07/13 02:11:55;;;;;;;16.13;13.10;;;21.30;99.90;;;;;;4916153;29;20111;-74
2021/07/13 02:14:21;;;;;;;16.45;13.18;;;21.30;99.90;;;;;;4916015;29;20051;-74
2021/07/13 02:16:48;;;;;;;17.98;15.05;;;21.30;99.90;;;;;;4916032;29;20424;-74
2021/07/13 02:19:13;;;;;;;24.80;16.70;;;21.30;99.90;;;;;;4915756;29;20555;-74
2021/07/13 02:21:40;;;;;;;20.52;14.48;;;21.40;99.90;;;;;;4915630;29;20025;-74
2021/07/13 02:24:06;;;;;;;15.73;12.73;;;21.40;99.90;;;;;;4915948;29;20056;-74
2021/07/13 02:26:54;;;;;;;14.85;12.15;;;21.40;99.90;;;;;;4915666;29;20025;-73
2021/07/13 02:29:49;;;;;;;16.58;12.63;;;21.60;99.90;;;;;;4915863;29;20030;-73
2021/07/13 02:32:48;;;;;;;15.77;11.80;;;21.90;99.90;;;;;;4915120;29;20040;-74
2021/07/13 02:35:18;;;;;;;14.18;11.40;;;22.30;99.90;;;;;;4911026;29;20028;-74
2021/07/13 02:37:47;;;;;;;14.70;12.73;;;22.80;99.90;;;;;;4915738;29;20016;-73
2021/07/13 02:40:15;;;;;;;16.63;12.50;;;23.20;99.90;;;;;;4915574;29;20032;-73
2021/07/13 02:42:48;;;;;;;17.70;12.82;;;23.60;99.90;;;;;;4915700;29;20434;-73
2021/07/13 02:45:17;;;;;;;20.60;12.32;;;24.10;99.90;;;;;;4915602;29;20065;-74
2021/07/13 02:47:45;;;;;;;23.02;15.98;;;24.60;99.90;;;;;;4915948;29;20032;-73
2021/07/13 02:50:12;;;;;;;18.52;12.63;;;25.10;99.90;;;;;;4915689;29;20115;-72
2021/07/13 02:52:39;;;;;;;17.55;12.02;;;25.60;99.90;;;;;;4915857;29;20039;-72
2021/07/13 02:55:09;;;;;;;17.30;11.80;;;26.10;99.90;;;;;;4915907;29;20686;-73
2021/07/13 02:57:36;;;;;;;15.50;12.27;;;26.70;99.90;;;;;;4915475;29;20048;-73
2021/07/13 03:00:06;;;;;;;15.25;12.50;;;27.20;99.90;;;;;;4915413;29;20032;-73
2021/07/13 03:02:32;;;;;;;16.38;11.30;;;27.80;99.90;;;;;;4915393;29;20107;-72
2021/07/13 03:04:58;;;;;;;16.42;11.10;;;28.40;99.90;;;;;;4915441;29;20051;-73
2021/07/13 03:07:25;;;;;;;18.20;11.48;;;28.90;99.90;;;;;;4915373;29;20059;-73
2021/07/13 03:09:51;;;;;;;13.40;11.27;;;29.50;99.90;;;;;;4915370;29;20035;-73
2021/07/13 03:12:18;;;;;;;14.13;9.88;;;30.00;99.90;;;;;;4898400;29;20471;-73
2021/07/13 03:14:44;;;;;;;38.05;29.50;;;30.60;97.40;;;;;;4898431;29;20383;-73
2021/07/13 03:17:12;;;;;;;22.50;11.07;;;31.10;94.70;;;;;;4915500;29;20032;-74
2021/07/13 03:19:38;;;;;;;12.95;10.15;;;31.50;92.70;;;;;;4915277;29;20083;-74
2021/07/13 03:22:09;;;;;;;10.65;9.55;;;32.00;91.10;;;;;;4915273;29;20034;-74
2021/07/13 03:24:36;;;;;;;18.95;9.88;;;32.50;88.70;;;;;;4915192;29;20024;-74
2021/07/13 03:27:02;;;;;;;12.20;10.00;;;32.90;85.50;;;;;;4915289;29;20024;-74
2021/07/13 03:29:30;;;;;;;13.10;9.98;;;33.30;82.80;;;;;;4914873;29;20024;-74
2021/07/13 03:31:56;;;;;;;11.15;9.93;;;33.80;80.30;;;;;;4915961;29;20028;-75
2021/07/13 03:34:22;;;;;;;10.80;9.48;;;34.20;77.40;;;;;;4918737;29;20024;-75
2021/07/13 03:36:48;;;;;;;13.65;11.30;;;34.60;75.00;;;;;;4918505;29;20039;-74
2021/07/13 03:39:15;;;;;;;12.95;10.35;;;35.00;72.60;;;;;;4918527;29;20029;-74
2021/07/13 03:41:42;;;;;;;18.98;10.90;;;35.40;70.90;;;;;;4918557;29;20080;-74
2021/07/13 03:44:08;;;;;;;13.85;10.20;;;35.70;69.70;;;;;;4918644;29;20025;-75
2021/07/13 03:46:36;;;;;;;14.57;10.02;;;36.10;68.10;;;;;;4918404;29;20029;-75
2021/07/13 03:49:07;;;;;;;13.98;10.15;;;36.50;66.80;;;;;;4918146;29;20095;-74
2021/07/13 03:51:40;;;;;;;13.55;11.20;;;36.80;65.80;;;;;;4918389;29;20035;-75
2021/07/13 03:54:07;;;;;;;12.48;10.73;;;37.20;64.00;;;;;;4918108;29;20028;-75
2021/07/13 03:56:33;;;;;;;12.25;10.90;;;37.60;64.00;;;;;;4917926;29;20040;-75
2021/07/13 03:58:59;;;;;;;14.60;10.30;;;38.00;62.80;;;;;;4918217;29;20032;-76
2021/07/13 04:01:25;;;;;;;12.57;10.13;;;38.40;61.60;;;;;;4918090;29;20538;-75
2021/07/13 04:03:51;;;;;;;14.55;10.85;;;38.70;60.60;;;;;;4918151;29;20110;-76
2021/07/13 04:06:16;;;;;;;20.08;11.18;;;39.00;59.80;;;;;;4918100;29;20036;-75
2021/07/13 04:08:42;;;;;;;13.32;10.55;;;39.30;59.10;;;;;;4918059;29;20062;-74
2021/07/13 04:11:08;;;;;;;32.40;25.95;;;39.60;58.50;;;;;;4917565;29;20036;-75
2021/07/13 04:13:33;;;;;;;15.10;11.30;;;40.10;57.60;;;;;;4917582;29;20031;-75
2021/07/13 04:15:59;;;;;;;14.40;10.80;;;40.40;56.90;;;;;;4917959;29;20032;-75
2021/07/13 04:18:25;;;;;;;16.58;11.25;;;40.60;56.00;;;;;;4917506;29;20380;-76
2021/07/13 04:20:51;;;;;;;12.63;11.35;;;40.90;55.20;;;;;;4917579;29;20040;-76
2021/07/13 04:23:17;;;;;;;19.13;10.75;;;41.10;55.10;;;;;;4917582;29;20058;-73
2021/07/13 04:25:43;;;;;;;15.05;11.75;;;41.30;53.90;;;;;;4917779;29;20024;-73
2021/07/13 04:28:10;;;;;;;16.55;11.15;;;41.60;53.30;;;;;;4917745;29;20080;-74
2021/07/13 04:30:36;;;;;;;13.23;11.27;;;41.90;52.90;;;;;;4917538;29;20467;-74
2021/07/13 04:33:02;;;;;;;13.88;10.73;;;42.20;52.50;;;;;;4917138;29;20026;-75
2021/07/13 04:35:28;;;;;;;15.23;11.52;;;42.60;51.60;;;;;;4917064;29;20036;-76
2021/07/13 04:37:53;;;;;;;16.90;10.90;;;42.80;50.90;;;;;;4917324;29;20543;-76
2021/07/13 04:40:19;;;;;;;17.80;11.10;;;43.20;50.20;;;;;;4917123;29;20111;-75
2021/07/13 04:42:45;;;;;;;13.27;11.82;;;43.40;49.30;;;;;;4917112;29;20092;-75
2021/07/13 04:45:11;;;;;;;12.52;10.73;;;43.50;48.60;;;;;;4916841;29;20024;-76
2021/07/13 04:47:37;;;;;;;12.80;10.30;;;43.60;47.90;;;;;;4916722;29;20379;-76
2021/07/13 04:50:10;;;;;;;11.75;10.52;;;43.90;47.60;;;;;;4916902;29;20028;-74
2021/07/13 04:52:36;;;;;;;11.90;10.80;;;44.10;46.30;;;;;;4916773;29;20034;-75
2021/07/13 04:55:04;;;;;;;11.10;10.00;;;44.20;45.90;;;;;;4916847;29;20029;-75
2021/07/13 04:57:30;;;;;;;18.30;10.77;;;44.30;45.20;;;;;;4915896;29;20060;-75
2021/07/13 04:59:56;;;;;;;13.20;11.38;;;44.50;45.00;;;;;;4915732;29;20379;-75
2021/07/13 05:02:21;;;;;;;12.93;11.25;;;44.80;44.50;;;;;;4916493;29;20024;-74
2021/07/13 05:04:47;;;;;;;14.20;10.73;;;44.90;43.80;;;;;;4916390;29;20558;-75
2021/07/13 05:07:13;;;;;;;14.68;11.65;;;45.00;43.30;;;;;;4915936;29;20028;-74
2021/07/13 05:09:39;;;;;;;15.23;10.75;;;45.20;43.00;;;;;;4909798;29;20024;-75
2021/07/13 05:12:05;;;;;;;13.20;11.00;;;45.40;42.60;;;;;;4910981;29;20036;-75
2021/07/13 05:14:31;;;;;;;10.80;9.80;;;45.60;42.20;;;;;;4898420;29;20039;-75
2021/07/13 05:16:57;;;;;;;16.38;10.48;;;45.70;41.80;;;;;;4916135;29;20035;-75
2021/07/13 05:19:23;;;;;;;14.18;9.73;;;45.70;41.70;;;;;;4916090;29;20032;-75
2021/07/13 05:21:56;;;;;;;14.52;10.57;;;45.90;41.50;;;;;;4915458;29;20467;-75
2021/07/13 05:24:25;;;;;;;9.93;9.05;;;46.10;41.10;;;;;;4915070;29;20020;-75
2021/07/13 05:26:51;;;;;;;11.27;9.07;;;46.20;40.80;;;;;;4915320;29;20020;-76
2021/07/13 05:29:17;;;;;;;10.25;8.65;;;46.40;40.40;;;;;;4916009;29;20092;-75
2021/07/13 05:31:44;;;;;;;12.68;10.98;;;46.60;40.00;;;;;;4915717;29;20103;-76
2021/07/13 05:34:10;;;;;;;13.25;10.13;;;46.80;40.00;;;;;;4914870;29;20031;-79
2021/07/13 05:36:36;;;;;;;9.93;9.02;;;46.90;39.80;;;;;;4915596;29;20374;-75
2021/07/13 05:39:05;;;;;;;12.00;9.75;;;47.10;39.10;;;;;;4915139;29;20024;-78
2021/07/13 05:41:31;;;;;;;13.20;10.33;;;47.10;38.70;;;;;;4915101;29;20089;-78
2021/07/13 05:43:58;;;;;;;11.05;10.02;;;46.80;38.70;;;;;;4915676;29;20032;-78
2021/07/13 05:46:23;;;;;;;10.85;9.77;;;46.40;38.80;;;;;;4915339;29;20103;-78
2021/07/13 05:48:49;;;;;;;13.65;11.35;;;46.10;38.80;;;;;;4915546;29;20127;-78
2021/07/13 05:51:15;;;;;;;16.70;11.20;;;46.00;38.80;;;;;;4915700;29;20055;-76
2021/07/13 05:53:41;;;;;;;16.63;10.38;;;46.00;38.80;;;;;;4915712;29;20020;-79
2021/07/13 05:56:08;;;;;;;21.38;13.77;;;46.10;39.00;;;;;;4909160;29;20124;-78
2021/07/13 05:58:34;;;;;;;28.67;18.75;;;46.20;38.90;;;;;;4879736;29;20097;-78
2021/07/13 06:01:00;;;;;;;36.22;20.50;;;46.20;38.40;;;;;;4896599;29;20028;-79
2021/07/13 06:03:26;;;;;;;44.33;22.90;;;46.20;38.60;;;;;;4896394;29;20032;-77
2021/07/13 06:05:52;;;;;;;26.15;17.52;;;46.30;38.30;;;;;;4896429;29;20480;-78
2021/07/13 06:08:17;;;;;;;21.08;16.73;;;46.60;37.90;;;;;;4879366;29;20036;-77
2021/07/13 06:10:43;;;;;;;18.10;15.25;;;46.80;37.70;;;;;;4896693;29;20131;-77
2021/07/13 06:13:09;;;;;;;21.10;15.57;;;46.80;37.90;;;;;;4896654;29;20029;-77
2021/07/13 06:15:34;;;;;;;23.08;15.48;;;46.70;37.60;;;;;;4896674;29;20059;-76
2021/07/13 06:18:00;;;;;;;22.83;15.65;;;46.80;37.70;;;;;;4896010;29;20064;-76
2021/07/13 06:20:26;;;;;;;21.42;15.65;;;47.10;37.70;;;;;;4896350;29;20036;-77
2021/07/13 06:22:52;;;;;;;22.13;14.85;;;47.50;37.30;;;;;;4895626;29;20020;-80
2021/07/13 06:25:18;;;;;;;14.05;12.68;;;47.70;37.10;;;;;;4895589;29;20031;-80
2021/07/13 06:27:43;;;;;;;24.75;16.60;;;47.80;37.20;;;;;;4896423;29;20456;-79
2021/07/13 06:30:10;;;;;;;31.77;21.55;;;47.70;37.10;;;;;;4896380;29;20029;-79
2021/07/13 06:32:35;;;;;;;26.90;18.55;;;47.50;37.20;;;;;;4896685;29;20044;-80
2021/07/13 06:35:01;;;;;;;28.38;20.95;;;47.20;36.90;;;;;;4896036;29;20032;-80
2021/07/13 06:37:27;;;;;;;29.13;22.05;;;47.10;37.10;;;;;;4896107;29;20068;-80
2021/07/13 06:39:53;;;;;;;60.05;33.22;;;46.90;37.30;;;;;;4896123;29;20033;-79
2021/07/13 06:42:18;;;;;;;71.10;41.28;;;46.70;37.30;;;;;;4895991;29;20025;-80
2021/07/13 06:44:44;;;;;;;81.30;43.05;;;46.40;37.30;;;;;;4896019;29;20088;-79
2021/07/13 06:47:10;;;;;;;86.05;45.42;;;46.00;37.70;;;;;;4895856;29;20033;-78
2021/07/13 06:49:35;;;;;;;79.65;44.70;;;45.70;37.80;;;;;;4896133;29;20425;-77
2021/07/13 06:52:02;;;;;;;71.63;38.65;;;45.60;38.20;;;;;;4895022;29;20028;-77
2021/07/13 06:54:28;;;;;;;78.78;42.05;;;45.60;38.60;;;;;;4895988;29;20056;-77
2021/07/13 06:56:54;;;;;;;73.60;38.97;;;45.70;38.70;;;;;;4895581;29;20056;-77
2021/07/13 06:59:21;;;;;;;65.22;37.38;;;45.80;38.20;;;;;;4894602;29;20361;-77
2021/07/13 07:01:46;;;;;;;78.72;37.38;;;45.20;37.80;;;;;;4894484;29;20476;-77
2021/07/13 07:04:12;;;;;;;67.80;38.45;;;44.30;38.60;;;;;;4896021;29;20032;-77
2021/07/13 07:06:38;;;;;;;71.25;38.13;;;43.80;39.50;;;;;;4895539;29;20030;-78
2021/07/13 07:09:03;;;;;;;72.45;35.95;;;43.60;40.00;;;;;;4899642;29;20025;-78
2021/07/13 07:11:29;;;;;;;61.92;35.38;;;43.60;40.30;;;;;;4899734;29;20033;-78
2021/07/13 07:13:55;;;;;;;68.20;36.35;;;43.90;40.20;;;;;;4899659;29;20028;-78
2021/07/13 07:16:20;;;;;;;47.28;26.65;;;44.10;39.80;;;;;;4899491;29;20043;-78
2021/07/13 07:18:46;;;;;;;39.97;23.23;;;44.30;39.20;;;;;;4899610;29;20055;-78
2021/07/13 07:21:12;;;;;;;35.63;21.88;;;44.50;38.90;;;;;;4899304;29;20032;-76
2021/07/13 07:23:38;;;;;;;36.58;21.00;;;44.40;38.70;;;;;;4899616;29;20360;-78
2021/07/13 07:26:04;;;;;;;36.50;22.38;;;44.60;39.40;;;;;;4899514;29;20080;-78
2021/07/13 07:28:30;;;;;;;36.72;22.30;;;44.70;38.40;;;;;;4899207;29;20084;-78
2021/07/13 07:30:56;;;;;;;29.60;20.75;;;44.70;38.80;;;;;;4898965;29;20032;-78
2021/07/13 07:33:21;;;;;;;32.90;21.45;;;44.80;38.60;;;;;;4899441;29;20029;-78
2021/07/13 07:35:47;;;;;;;35.08;22.88;;;44.80;38.40;;;;;;4899597;29;20475;-77
2021/07/13 07:38:13;;;;;;;29.02;21.20;;;45.00;38.50;;;;;;4899123;29;20153;-81
2021/07/13 07:40:39;;;;;;;25.33;19.77;;;44.80;38.60;;;;;;4899303;29;20104;-80
2021/07/13 07:43:06;;;;;;;29.67;22.13;;;44.80;38.60;;;;;;4898806;29;20124;-78
2021/07/13 07:45:31;;;;;;;33.03;21.55;;;44.80;38.60;;;;;;4897912;29;20035;-78
2021/07/13 07:47:57;;;;;;;30.67;19.92;;;44.50;39.00;;;;;;4898721;29;20025;-80
2021/07/13 07:50:24;;;;;;;14.93;12.05;;;44.30;39.50;;;;;;4882369;29;20116;-80
2021/07/13 07:52:51;;;;;;;16.00;11.25;;;44.20;39.30;;;;;;4899034;29;20404;-78
2021/07/13 07:55:19;;;;;;;12.60;11.40;;;44.10;39.00;;;;;;4899380;29;20500;-80
2021/07/13 07:57:45;;;;;;;15.27;11.82;;;43.80;39.10;;;;;;4898830;29;20524;-80
2021/07/13 08:00:12;;;;;;;14.85;11.43;;;43.70;39.40;;;;;;4881576;29;20111;-81
2021/07/13 08:02:38;;;;;;;21.23;10.63;;;43.60;39.40;;;;;;4899022;29;20025;-80
2021/07/13 08:05:05;;;;;;;14.35;10.57;;;43.60;39.70;;;;;;4898649;29;20089;-80
2021/07/13 08:07:31;;;;;;;12.25;10.10;;;43.30;39.30;;;;;;4898495;29;20085;-79
2021/07/13 08:09:57;;;;;;;15.05;10.68;;;42.80;39.30;;;;;;4898028;29;20429;-80
2021/07/13 08:12:23;;;;;;;13.75;10.70;;;42.40;40.00;;;;;;4898299;29;20024;-81
2021/07/13 08:14:50;;;;;;;14.77;10.35;;;42.20;40.80;;;;;;4898057;29;20033;-81
2021/07/13 08:17:16;;;;;;;13.70;10.23;;;42.00;40.80;;;;;;4881345;29;20154;-82
2021/07/13 08:19:44;;;;;;;10.48;9.57;;;41.70;40.80;;;;;;4897714;29;20111;-80
2021/07/13 08:22:10;;;;;;;11.68;10.35;;;41.40;41.00;;;;;;4896595;29;20032;-80
2021/07/13 08:24:37;;;;;;;14.88;11.05;;;41.10;41.70;;;;;;4897617;29;20028;-80
2021/07/13 08:27:05;;;;;;;13.38;11.90;;;40.80;42.20;;;;;;4897849;29;20028;-80
2021/07/13 08:29:31;;;;;;;16.55;11.57;;;40.60;42.50;;;;;;4880832;29;20377;-79
2021/07/13 08:31:57;;;;;;;16.42;12.02;;;40.50;42.40;;;;;;4897870;29;20080;-80
2021/07/13 08:34:27;;;;;;;13.23;11.68;;;40.20;42.50;;;;;;4897929;29;20072;-79
2021/07/13 08:36:53;;;;;;;19.02;11.93;;;40.00;43.00;;;;;;4897593;29;20388;-79
2021/07/13 08:39:19;;;;;;;16.40;11.85;;;39.70;43.30;;;;;;4897334;29;20033;-79
2021/07/13 08:41:46;;;;;;;22.90;11.63;;;39.50;43.70;;;;;;4897404;29;20025;-80
2021/07/13 08:44:12;;;;;;;14.00;10.40;;;39.40;43.70;;;;;;4899325;29;20104;-85
2021/07/13 08:46:39;;;;;;;17.55;12.55;;;39.30;43.80;;;;;;4898533;29;20020;-84
2021/07/13 08:49:08;;;;;;;12.70;11.27;;;39.30;43.70;;;;;;4899240;29;20047;-84
2021/07/13 08:51:33;;;;;;;17.08;13.13;;;39.10;43.70;;;;;;4898766;29;20029;-86
2021/07/13 08:54:08;;;;;;;12.18;10.93;;;38.90;44.00;;;;;;4898831;29;20038;-85
2021/07/13 08:56:36;;;;;;;13.10;10.85;;;38.90;43.90;;;;;;4898700;29;20365;-84
2021/07/13 08:59:03;;;;;;;16.30;12.02;;;38.70;44.60;;;;;;4898836;29;20112;-86
2021/07/13 09:01:31;;;;;;;19.83;14.75;;;38.60;44.20;;;;;;4899058;29;20033;-87
2021/07/13 09:03:56;;;;;;;14.38;12.88;;;38.40;44.50;;;;;;4900216;29;20025;-86
2021/07/13 09:06:23;;;;;;;16.20;13.18;;;38.40;45.10;;;;;;4899073;29;20471;-87
2021/07/13 09:08:49;;;;;;;17.23;12.15;;;38.40;45.40;;;;;;4899123;29;20021;-86
2021/07/13 09:11:17;;;;;;;13.80;12.35;;;38.40;45.20;;;;;;4899510;29;20036;-84
2021/07/13 09:13:46;;;;;;;17.10;12.60;;;38.40;45.20;;;;;;4888304;29;20028;-86
2021/07/13 09:16:16;;;;;;;14.13;12.73;;;38.30;45.10;;;;;;4900555;29;20368;-88
2021/07/13 09:18:50;;;;;;;27.90;14.35;;;38.00;45.10;;;;;;4882447;29;20688;-87
2021/07/13 09:21:16;;;;;;;16.95;13.60;;;37.80;46.40;;;;;;4899780;29;20115;-86
2021/07/13 09:24:11;;;;;;;18.38;14.57;;;37.70;47.30;;;;;;4899088;29;20020;-86
2021/07/13 09:26:44;;;;;;;15.23;13.52;;;37.40;47.30;;;;;;4898953;29;20024;-88
2021/07/13 09:29:32;;;;;;;17.70;13.65;;;37.10;47.80;;;;;;4898754;29;20024;-87
2021/07/13 09:32:23;;;;;;;14.00;12.45;;;36.90;49.00;;;;;;4883274;29;20029;-87
2021/07/13 09:35:01;;;;;;;19.90;16.27;;;36.70;48.60;;;;;;4883034;29;20052;-86
2021/07/13 09:37:50;;;;;;;21.90;13.02;;;36.40;49.20;;;;;;4899443;29;20096;-87
2021/07/13 09:40:17;;;;;;;16.98;13.77;;;36.20;50.40;;;;;;4898274;29;20032;-87
2021/07/13 09:42:51;;;;;;;30.05;15.25;;;36.10;50.60;;;;;;4898560;29;20021;-86
2021/07/13 09:45:28;;;;;;;20.85;13.70;;;36.10;51.00;;;;;;4898880;29;20021;-88
2021/07/13 09:47:56;;;;;;;19.60;15.43;;;35.90;51.60;;;;;;4898949;29;20441;-86
2021/07/13 09:50:40;;;;;;;21.00;13.63;;;35.90;51.50;;;;;;4898432;29;20036;-86
2021/07/13 09:53:08;;;;;;;20.58;14.35;;;35.80;51.90;;;;;;4899302;29;20384;-87
2021/07/13 09:55:35;;;;;;;18.42;15.05;;;35.80;51.90;;;;;;4900615;29;20039;-86
2021/07/13 09:58:24;;;;;;;22.30;19.63;;;35.70;52.30;;;;;;4917918;29;20028;-87
2021/07/13 10:00:57;;;;;;;16.30;14.43;;;35.60;52.20;;;;;;4919745;29;20467;-86
2021/07/13 10:03:25;;;;;;;22.33;14.63;;;35.40;51.80;;;;;;4916871;29;20056;-85
2021/07/13 10:05:52;;;;;;;19.98;14.48;;;35.20;52.10;;;;;;4916984;29;20119;-84
2021/07/13 10:08:20;;;;;;;22.27;16.05;;;35.00;52.40;;;;;;4917011;29;20028;-83
2021/07/13 10:10:48;;;;;;;15.73;12.25;;;35.00;52.40;;;;;;4917225;29;20028;-83
2021/07/13 10:13:15;;;;;;;14.70;12.15;;;34.80;52.50;;;;;;4917182;29;20020;-83
2021/07/13 10:15:42;;;;;;;16.65;13.48;;;34.80;52.60;;;;;;4917664;29;20032;-82
2021/07/13 10:18:08;;;;;;;14.95;12.40;;;34.70;52.80;;;;;;4917279;29;20159;-82
2021/07/13 10:20:36;;;;;;;20.30;11.75;;;34.60;53.10;;;;;;4916669;29;20066;-82
2021/07/13 10:23:05;;;;;;;17.02;13.27;;;34.60;52.60;;;;;;4916888;29;20413;-83
2021/07/13 10:25:35;;;;;;;19.73;13.45;;;34.60;52.80;;;;;;4900209;29;20365;-83
2021/07/13 10:28:02;;;;;;;12.80;10.03;;;34.60;53.00;;;;;;4916942;29;20103;-83
2021/07/13 10:30:28;;;;;;;8.52;7.72;;;34.50;51.80;;;;;;4916512;29;20256;-83
2021/07/13 10:32:54;;;;;;;12.38;9.32;;;34.40;50.30;;;;;;4916830;29;20036;-82
2021/07/13 10:35:25;;;;;;;10.27;8.13;;;34.30;50.60;;;;;;4915339;29;20035;-82
2021/07/13 10:37:57;;;;;;;15.57;12.60;;;34.20;49.70;;;;;;4899582;29;20443;-82
2021/07/13 10:40:25;;;;;;;18.95;10.38;;;33.90;50.80;;;;;;4916336;29;20029;-82
2021/07/13 10:42:59;;;;;;;13.20;9.70;;;33.90;51.70;;;;;;4916481;29;20480;-83
2021/07/13 10:45:27;;;;;;;16.20;8.65;;;33.80;51.40;;;;;;4916829;29;20028;-82
2021/07/13 10:47:57;;;;;;;14.48;10.98;;;33.80;50.90;;;;;;4916478;29;20376;-83
2021/07/13 10:50:26;;;;;;;12.85;10.80;;;33.80;51.10;;;;;;4916715;29;20392;-83
2021/07/13 10:52:58;;;;;;;18.17;13.30;;;33.70;51.70;;;;;;4899802;29;20032;-84
2021/07/13 10:55:33;;;;;;;16.92;10.85;;;33.50;52.10;;;;;;4916435;29;20088;-84
2021/07/13 10:58:14;;;;;;;14.75;10.15;;;33.20;52.10;;;;;;4917826;29;20056;-84
2021/07/13 11:00:56;;;;;;;8.35;7.50;;;33.10;52.70;;;;;;4916800;29;20072;-83
2021/07/13 11:03:31;;;;;;;13.55;8.30;;;33.10;51.50;;;;;;4899559;29;20483;-84
2021/07/13 11:06:10;;;;;;;7.65;6.78;;;33.00;50.30;;;;;;4916805;29;20386;-83
2021/07/13 11:08:39;;;;;;;6.47;5.88;;;32.90;49.40;;;;;;4916667;29;20024;-84
2021/07/13 11:11:14;;;;;;;5.90;4.65;;;32.80;48.80;;;;;;4916448;29;20028;-82
2021/07/13 11:13:42;;;;;;;5.13;3.58;;;32.80;48.20;;;;;;4916487;29;20028;-83
2021/07/13 11:16:08;;;;;;;4.50;4.10;;;32.80;47.30;;;;;;4917320;29;20126;-86
2021/07/13 11:18:36;;;;;;;7.90;5.45;;;32.80;46.80;;;;;;4916958;29;20036;-84
2021/07/13 11:21:21;;;;;;;7.05;5.97;;;32.80;47.20;;;;;;4916729;29;20442;-84
2021/07/13 11:23:54;;;;;;;4.53;4.10;;;32.60;47.70;;;;;;4917387;29;20021;-83
2021/07/13 11:26:22;;;;;;;4.65;4.07;;;32.50;47.20;;;;;;4899838;29;20024;-85
2021/07/13 11:28:52;;;;;;;5.10;4.57;;;32.50;46.60;;;;;;4900343;29;20128;-84
2021/07/13 11:31:20;;;;;;;6.75;6.10;;;32.40;47.10;;;;;;4917614;29;20109;-83
2021/07/13 11:34:02;;;;;;;9.13;5.80;;;32.50;47.00;;;;;;4917096;29;20036;-84
2021/07/13 11:36:29;;;;;;;9.63;8.13;;;32.50;47.10;;;;;;4916493;29;20039;-84
2021/07/13 11:38:55;;;;;;;11.25;7.95;;;32.50;48.00;;;;;;4917352;29;20028;-84
2021/07/13 11:41:21;;;;;;;13.68;9.85;;;32.50;49.20;;;;;;4917686;29;20183;-84
2021/07/13 11:43:52;;;;;;;16.35;10.30;;;32.40;49.10;;;;;;4916522;29;20468;-84
2021/07/13 11:46:20;;;;;;;14.13;10.07;;;32.50;49.70;;;;;;4916628;29;20056;-84
2021/07/13 11:48:56;;;;;;;21.55;11.80;;;32.60;50.30;;;;;;4916778;29;20039;-84
2021/07/13 11:51:32;;;;;;;15.32;10.40;;;32.60;50.40;;;;;;4917484;29;20442;-85
2021/07/13 11:54:03;;;;;;;13.75;10.50;;;32.50;50.60;;;;;;4918236;29;20107;-85
2021/07/13 11:56:30;;;;;;;10.38;9.25;;;32.40;50.40;;;;;;4921202;29;20523;-83
2021/07/13 11:58:56;;;;;;;16.42;12.55;;;32.20;50.00;;;;;;4920754;29;20137;-85
2021/07/13 12:01:26;;;;;;;15.73;11.80;;;32.10;50.70;;;;;;4919480;29;20528;-84
2021/07/13 12:03:53;;;;;;;17.50;13.25;;;31.80;51.70;;;;;;4919377;29;20028;-84
2021/07/13 12:06:23;;;;;;;17.45;12.27;;;31.70;52.70;;;;;;4919124;29;20027;-84
2021/07/13 12:09:00;;;;;;;15.98;12.27;;;31.60;53.60;;;;;;4919378;29;20078;-85
2021/07/13 12:11:29;;;;;;;15.52;11.55;;;31.50;54.00;;;;;;4919265;29;20027;-84
2021/07/13 12:13:57;;;;;;;12.13;10.63;;;31.50;53.50;;;;;;4919471;29;20475;-84
2021/07/13 12:16:25;;;;;;;12.52;8.73;;;31.40;53.00;;;;;;4919933;29;20043;-84
2021/07/13 12:18:52;;;;;;;11.55;9.45;;;31.30;52.50;;;;;;4919223;29;20028;-85
2021/07/13 12:21:19;;;;;;;14.68;11.20;;;31.30;52.00;;;;;;4919033;29;20028;-84
2021/07/13 12:23:47;;;;;;;19.80;10.35;;;31.30;52.60;;;;;;4919097;29;20016;-85
2021/07/13 12:26:22;;;;;;;20.75;9.45;;;31.30;52.40;;;;;;4919094;29;20028;-85
2021/07/13 12:29:09;;;;;;;10.93;8.68;;;31.20;52.10;;;;;;4919747;29;20037;-83
2021/07/13 12:31:38;;;;;;;74.43;67.47;;;31.30;51.70;;;;;;4918957;29;20020;-88
2021/07/13 12:34:13;;;;;;;9.68;8.23;;;31.30;51.10;;;;;;4918514;29;20043;-85
2021/07/13 12:36:39;;;;;;;7.03;6.38;;;31.30;48.70;;;;;;4918865;29;20115;-85